sensor_id;sensor_type;location;lat;lon;timestamp;P1;durP1;ratioP1;P2;durP2;ratioP2
33190;SDS011;19554;42.652;23.364;2023-04-06T00:00:47;14.82;;;10.07;;
33190;SDS011;19554;42.652;23.364;2023-04-06T00:03:13;12.68;;;9.82;;
33190;SDS011;19554;42.652;23.364;2023-04-06T00:05:38;14.57;;;10.40;;
33190;SDS011;19554;42.652;23.364;2023-04-06T00:08:04;12.98;;;10.20;;
33190;SDS011;19554;42.652;23.364;2023-04-06T00:10:30;14.23;;;10.70;;
33190;SDS011;19554;42.652;23.364;2023-04-06T00:12:55;14.18;;;10.82;;
33190;SDS011;19554;42.652;23.364;2023-04-06T00:15:22;13.82;;;10.82;;
33190;SDS011;19554;42.652;23.364;2023-04-06T00:17:47;14.23;;;10.70;;
33190;SDS011;19554;42.652;23.364;2023-04-06T00:20:13;14.45;;;10.93;;
33190;SDS011;19554;42.652;23.364;2023-04-06T00:22:39;17.88;;;11.25;;
33190;SDS011;19554;42.652;23.364;2023-04-06T00:25:05;16.05;;;10.52;;
33190;SDS011;19554;42.652;23.364;2023-04-06T00:27:31;15.40;;;10.57;;
33190;SDS011;19554;42.652;23.364;2023-04-06T00:29:56;15.68;;;10.60;;
33190;SDS011;19554;42.652;23.364;2023-04-06T00:32:21;13.63;;;10.95;;
33190;SDS011;19554;42.652;23.364;2023-04-06T00:34:47;16.25;;;10.65;;
33190;SDS011;19554;42.652;23.364;2023-04-06T00:37:12;13.48;;;10.52;;
33190;SDS011;19554;42.652;23.364;2023-04-06T00:39:38;14.57;;;10.68;;
33190;SDS011;19554;42.652;23.364;2023-04-06T00:42:07;13.23;;;10.45;;
33190;SDS011;19554;42.652;23.364;2023-04-06T00:44:38;14.57;;;10.40;;
33190;SDS011;19554;42.652;23.364;2023-04-06T00:47:04;13.65;;;10.73;;
33190;SDS011;19554;42.652;23.364;2023-04-06T00:49:30;14.55;;;11.07;;
33190;SDS011;19554;42.652;23.364;2023-04-06T00:51:57;16.02;;;10.80;;
33190;SDS011;19554;42.652;23.364;2023-04-06T00:54:22;16.02;;;10.95;;
33190;SDS011;19554;42.652;23.364;2023-04-06T00:56:48;14.27;;;10.10;;
33190;SDS011;19554;42.652;23.364;2023-04-06T00:59:13;13.48;;;10.77;;
33190;SDS011;19554;42.652;23.364;2023-04-06T01:01:39;15.18;;;10.65;;
33190;SDS011;19554;42.652;23.364;2023-04-06T01:04:04;15.43;;;11.00;;
33190;SDS011;19554;42.652;23.364;2023-04-06T01:06:29;14.65;;;9.80;;
33190;SDS011;19554;42.652;23.364;2023-04-06T01:08:55;14.38;;;10.35;;
33190;SDS011;19554;42.652;23.364;2023-04-06T01:11:20;13.65;;;10.05;;
33190;SDS011;19554;42.652;23.364;2023-04-06T01:13:46;15.18;;;10.23;;
33190;SDS011;19554;42.652;23.364;2023-04-06T01:16:11;14.63;;;11.02;;
33190;SDS011;19554;42.652;23.364;2023-04-06T01:18:37;14.23;;;10.52;;
33190;SDS011;19554;42.652;23.364;2023-04-06T01:21:03;12.57;;;9.85;;
33190;SDS011;19554;42.652;23.364;2023-04-06T01:23:28;13.93;;;10.27;;
33190;SDS011;19554;42.652;23.364;2023-04-06T01:25:54;13.82;;;10.27;;
33190;SDS011;19554;42.652;23.364;2023-04-06T01:28:19;14.45;;;10.52;;
33190;SDS011;19554;42.652;23.364;2023-04-06T01:30:45;14.82;;;10.38;;
33190;SDS011;19554;42.652;23.364;2023-04-06T01:33:10;13.70;;;10.43;;
33190;SDS011;19554;42.652;23.364;2023-04-06T01:35:36;14.35;;;10.35;;
33190;SDS011;19554;42.652;23.364;2023-04-06T01:38:01;13.65;;;10.32;;
33190;SDS011;19554;42.652;23.364;2023-04-06T01:40:26;14.05;;;10.73;;
33190;SDS011;19554;42.652;23.364;2023-04-06T01:42:52;13.13;;;10.00;;
33190;SDS011;19554;42.652;23.364;2023-04-06T01:45:17;13.10;;;10.18;;
33190;SDS011;19554;42.652;23.364;2023-04-06T01:47:43;15.07;;;10.40;;
33190;SDS011;19554;42.652;23.364;2023-04-06T01:50:08;14.38;;;10.52;;
33190;SDS011;19554;42.652;23.364;2023-04-06T01:52:34;15.25;;;10.60;;
33190;SDS011;19554;42.652;23.364;2023-04-06T01:55:00;14.18;;;9.93;;
33190;SDS011;19554;42.652;23.364;2023-04-06T01:57:25;13.63;;;10.00;;
33190;SDS011;19554;42.652;23.364;2023-04-06T01:59:51;13.65;;;10.32;;
33190;SDS011;19554;42.652;23.364;2023-04-06T02:02:16;14.90;;;10.27;;
33190;SDS011;19554;42.652;23.364;2023-04-06T02:04:41;16.45;;;9.90;;
33190;SDS011;19554;42.652;23.364;2023-04-06T02:07:07;15.38;;;10.23;;
33190;SDS011;19554;42.652;23.364;2023-04-06T02:09:32;14.77;;;10.50;;
33190;SDS011;19554;42.652;23.364;2023-04-06T02:11:58;13.23;;;9.98;;
33190;SDS011;19554;42.652;23.364;2023-04-06T02:14:24;13.77;;;9.57;;
33190;SDS011;19554;42.652;23.364;2023-04-06T02:16:50;15.98;;;9.70;;
33190;SDS011;19554;42.652;23.364;2023-04-06T02:19:16;12.93;;;9.55;;
33190;SDS011;19554;42.652;23.364;2023-04-06T02:21:41;13.88;;;9.52;;
33190;SDS011;19554;42.652;23.364;2023-04-06T02:24:07;12.65;;;9.00;;
33190;SDS011;19554;42.652;23.364;2023-04-06T02:26:32;13.23;;;9.73;;
33190;SDS011;19554;42.652;23.364;2023-04-06T02:28:58;12.65;;;9.95;;
33190;SDS011;19554;42.652;23.364;2023-04-06T02:31:23;14.20;;;9.88;;
33190;SDS011;19554;42.652;23.364;2023-04-06T02:33:49;13.50;;;10.30;;
33190;SDS011;19554;42.652;23.364;2023-04-06T02:36:14;13.32;;;9.52;;
33190;SDS011;19554;42.652;23.364;2023-04-06T02:38:39;13.98;;;10.57;;
33190;SDS011;19554;42.652;23.364;2023-04-06T02:41:05;13.50;;;9.30;;
33190;SDS011;19554;42.652;23.364;2023-04-06T02:43:30;13.75;;;10.13;;
33190;SDS011;19554;42.652;23.364;2023-04-06T02:45:56;15.05;;;10.15;;
33190;SDS011;19554;42.652;23.364;2023-04-06T02:48:21;14.90;;;10.27;;
33190;SDS011;19554;42.652;23.364;2023-04-06T02:50:46;14.68;;;10.52;;
33190;SDS011;19554;42.652;23.364;2023-04-06T02:53:12;15.43;;;9.95;;
33190;SDS011;19554;42.652;23.364;2023-04-06T02:55:37;14.05;;;9.38;;
33190;SDS011;19554;42.652;23.364;2023-04-06T02:58:02;13.88;;;10.95;;
33190;SDS011;19554;42.652;23.364;2023-04-06T03:00:28;16.48;;;10.55;;
33190;SDS011;19554;42.652;23.364;2023-04-06T03:02:53;13.15;;;9.73;;
33190;SDS011;19554;42.652;23.364;2023-04-06T03:05:18;14.10;;;10.30;;
33190;SDS011;19554;42.652;23.364;2023-04-06T03:07:44;14.38;;;10.20;;
33190;SDS011;19554;42.652;23.364;2023-04-06T03:10:10;14.65;;;10.30;;
33190;SDS011;19554;42.652;23.364;2023-04-06T03:12:36;16.15;;;10.25;;
33190;SDS011;19554;42.652;23.364;2023-04-06T03:15:01;14.18;;;9.48;;
33190;SDS011;19554;42.652;23.364;2023-04-06T03:17:27;14.40;;;9.52;;
33190;SDS011;19554;42.652;23.364;2023-04-06T03:19:52;14.82;;;10.07;;
33190;SDS011;19554;42.652;23.364;2023-04-06T03:22:19;13.63;;;9.73;;
33190;SDS011;19554;42.652;23.364;2023-04-06T03:24:45;13.80;;;9.90;;
33190;SDS011;19554;42.652;23.364;2023-04-06T03:27:10;17.65;;;11.63;;
33190;SDS011;19554;42.652;23.364;2023-04-06T03:29:36;14.43;;;10.98;;
33190;SDS011;19554;42.652;23.364;2023-04-06T03:32:01;13.88;;;10.27;;
33190;SDS011;19554;42.652;23.364;2023-04-06T03:34:27;16.33;;;11.65;;
33190;SDS011;19554;42.652;23.364;2023-04-06T03:36:52;17.13;;;10.57;;
33190;SDS011;19554;42.652;23.364;2023-04-06T03:39:17;14.10;;;10.68;;
33190;SDS011;19554;42.652;23.364;2023-04-06T03:41:43;14.57;;;10.00;;
33190;SDS011;19554;42.652;23.364;2023-04-06T03:44:09;15.98;;;10.43;;
33190;SDS011;19554;42.652;23.364;2023-04-06T03:46:35;14.45;;;10.75;;
33190;SDS011;19554;42.652;23.364;2023-04-06T03:49:00;14.43;;;10.15;;
33190;SDS011;19554;42.652;23.364;2023-04-06T03:51:25;13.52;;;9.95;;
33190;SDS011;19554;42.652;23.364;2023-04-06T03:53:52;16.42;;;10.52;;
33190;SDS011;19554;42.652;23.364;2023-04-06T03:56:17;14.25;;;10.30;;
33190;SDS011;19554;42.652;23.364;2023-04-06T03:58:42;13.13;;;9.77;;
33190;SDS011;19554;42.652;23.364;2023-04-06T04:01:10;13.93;;;9.30;;
33190;SDS011;19554;42.652;23.364;2023-04-06T04:03:35;14.00;;;9.65;;
33190;SDS011;19554;42.652;23.364;2023-04-06T04:06:01;11.68;;;8.77;;
33190;SDS011;19554;42.652;23.364;2023-04-06T04:08:26;15.80;;;9.77;;
33190;SDS011;19554;42.652;23.364;2023-04-06T04:10:51;16.70;;;8.52;;
33190;SDS011;19554;42.652;23.364;2023-04-06T04:13:17;12.23;;;9.45;;
33190;SDS011;19554;42.652;23.364;2023-04-06T04:15:42;13.75;;;9.48;;
33190;SDS011;19554;42.652;23.364;2023-04-06T04:18:07;11.98;;;8.10;;
33190;SDS011;19554;42.652;23.364;2023-04-06T04:20:33;14.23;;;9.57;;
33190;SDS011;19554;42.652;23.364;2023-04-06T04:22:59;15.40;;;9.85;;
33190;SDS011;19554;42.652;23.364;2023-04-06T04:25:24;14.52;;;9.48;;
33190;SDS011;19554;42.652;23.364;2023-04-06T04:27:50;12.70;;;9.20;;
33190;SDS011;19554;42.652;23.364;2023-04-06T04:30:15;12.38;;;8.77;;
33190;SDS011;19554;42.652;23.364;2023-04-06T04:32:41;13.38;;;9.43;;
33190;SDS011;19554;42.652;23.364;2023-04-06T04:35:06;13.60;;;9.55;;
33190;SDS011;19554;42.652;23.364;2023-04-06T04:37:32;17.45;;;10.82;;
33190;SDS011;19554;42.652;23.364;2023-04-06T04:39:59;14.45;;;10.80;;
33190;SDS011;19554;42.652;23.364;2023-04-06T04:42:25;14.73;;;10.50;;
33190;SDS011;19554;42.652;23.364;2023-04-06T04:44:50;16.65;;;10.45;;
33190;SDS011;19554;42.652;23.364;2023-04-06T04:47:15;15.38;;;10.70;;
33190;SDS011;19554;42.652;23.364;2023-04-06T04:49:41;16.95;;;9.98;;
33190;SDS011;19554;42.652;23.364;2023-04-06T04:52:06;15.90;;;9.98;;
33190;SDS011;19554;42.652;23.364;2023-04-06T04:54:31;18.08;;;9.88;;
33190;SDS011;19554;42.652;23.364;2023-04-06T04:56:57;16.50;;;11.00;;
33190;SDS011;19554;42.652;23.364;2023-04-06T04:59:22;15.20;;;9.98;;
33190;SDS011;19554;42.652;23.364;2023-04-06T05:01:48;15.20;;;10.75;;
33190;SDS011;19554;42.652;23.364;2023-04-06T05:04:13;18.40;;;10.88;;
33190;SDS011;19554;42.652;23.364;2023-04-06T05:06:39;12.85;;;9.32;;
33190;SDS011;19554;42.652;23.364;2023-04-06T05:09:04;15.02;;;10.77;;
33190;SDS011;19554;42.652;23.364;2023-04-06T05:11:30;15.88;;;11.10;;
33190;SDS011;19554;42.652;23.364;2023-04-06T05:13:55;15.10;;;11.25;;
33190;SDS011;19554;42.652;23.364;2023-04-06T05:16:21;18.88;;;11.85;;
33190;SDS011;19554;42.652;23.364;2023-04-06T05:18:47;19.38;;;11.98;;
33190;SDS011;19554;42.652;23.364;2023-04-06T05:21:13;20.10;;;11.55;;
33190;SDS011;19554;42.652;23.364;2023-04-06T05:23:38;13.57;;;10.10;;
33190;SDS011;19554;42.652;23.364;2023-04-06T05:26:03;23.83;;;12.07;;
33190;SDS011;19554;42.652;23.364;2023-04-06T05:28:30;18.08;;;11.65;;
33190;SDS011;19554;42.652;23.364;2023-04-06T05:30:55;20.73;;;11.40;;
33190;SDS011;19554;42.652;23.364;2023-04-06T05:33:21;20.55;;;13.45;;
33190;SDS011;19554;42.652;23.364;2023-04-06T05:35:47;23.00;;;11.98;;
33190;SDS011;19554;42.652;23.364;2023-04-06T05:38:12;15.80;;;11.18;;
33190;SDS011;19554;42.652;23.364;2023-04-06T05:40:38;17.25;;;11.57;;
33190;SDS011;19554;42.652;23.364;2023-04-06T05:43:06;19.17;;;12.13;;
33190;SDS011;19554;42.652;23.364;2023-04-06T05:45:32;19.20;;;12.10;;
33190;SDS011;19554;42.652;23.364;2023-04-06T05:47:57;23.05;;;13.00;;
33190;SDS011;19554;42.652;23.364;2023-04-06T05:50:23;19.00;;;11.85;;
33190;SDS011;19554;42.652;23.364;2023-04-06T05:52:48;22.38;;;13.27;;
33190;SDS011;19554;42.652;23.364;2023-04-06T05:55:13;23.35;;;13.48;;
33190;SDS011;19554;42.652;23.364;2023-04-06T05:57:39;23.40;;;14.20;;
33190;SDS011;19554;42.652;23.364;2023-04-06T06:00:05;20.25;;;12.52;;
33190;SDS011;19554;42.652;23.364;2023-04-06T06:02:33;26.42;;;15.65;;
33190;SDS011;19554;42.652;23.364;2023-04-06T06:04:58;26.58;;;14.52;;
33190;SDS011;19554;42.652;23.364;2023-04-06T06:07:23;23.70;;;15.65;;
33190;SDS011;19554;42.652;23.364;2023-04-06T06:09:49;22.23;;;14.85;;
33190;SDS011;19554;42.652;23.364;2023-04-06T06:12:15;23.98;;;13.85;;
33190;SDS011;19554;42.652;23.364;2023-04-06T06:14:40;29.45;;;14.25;;
33190;SDS011;19554;42.652;23.364;2023-04-06T06:17:06;19.15;;;13.27;;
33190;SDS011;19554;42.652;23.364;2023-04-06T06:19:31;24.33;;;15.38;;
33190;SDS011;19554;42.652;23.364;2023-04-06T06:21:56;23.27;;;14.77;;
33190;SDS011;19554;42.652;23.364;2023-04-06T06:24:22;23.55;;;14.57;;
33190;SDS011;19554;42.652;23.364;2023-04-06T06:26:47;23.38;;;15.13;;
33190;SDS011;19554;42.652;23.364;2023-04-06T06:29:13;24.98;;;16.02;;
33190;SDS011;19554;42.652;23.364;2023-04-06T06:31:39;25.23;;;15.27;;
33190;SDS011;19554;42.652;23.364;2023-04-06T06:34:05;25.38;;;16.25;;
33190;SDS011;19554;42.652;23.364;2023-04-06T06:36:31;28.85;;;17.45;;
33190;SDS011;19554;42.652;23.364;2023-04-06T06:38:57;22.85;;;15.45;;
33190;SDS011;19554;42.652;23.364;2023-04-06T06:41:23;23.50;;;14.50;;
33190;SDS011;19554;42.652;23.364;2023-04-06T06:43:49;22.55;;;14.25;;
33190;SDS011;19554;42.652;23.364;2023-04-06T06:46:15;26.08;;;14.10;;
33190;SDS011;19554;42.652;23.364;2023-04-06T06:48:40;17.27;;;11.75;;
33190;SDS011;19554;42.652;23.364;2023-04-06T06:51:05;28.45;;;13.15;;
33190;SDS011;19554;42.652;23.364;2023-04-06T06:53:31;22.35;;;13.30;;
33190;SDS011;19554;42.652;23.364;2023-04-06T06:55:56;23.58;;;14.82;;
33190;SDS011;19554;42.652;23.364;2023-04-06T06:58:22;20.75;;;13.48;;
33190;SDS011;19554;42.652;23.364;2023-04-06T07:00:47;27.13;;;14.93;;
33190;SDS011;19554;42.652;23.364;2023-04-06T07:03:13;21.80;;;13.27;;
33190;SDS011;19554;42.652;23.364;2023-04-06T07:05:38;18.58;;;12.68;;
33190;SDS011;19554;42.652;23.364;2023-04-06T07:08:04;19.92;;;13.43;;
33190;SDS011;19554;42.652;23.364;2023-04-06T07:10:29;23.85;;;13.60;;
33190;SDS011;19554;42.652;23.364;2023-04-06T07:12:55;20.63;;;11.93;;
33190;SDS011;19554;42.652;23.364;2023-04-06T07:15:20;19.85;;;12.52;;
33190;SDS011;19554;42.652;23.364;2023-04-06T07:17:46;21.05;;;11.93;;
33190;SDS011;19554;42.652;23.364;2023-04-06T07:20:12;22.35;;;14.18;;
33190;SDS011;19554;42.652;23.364;2023-04-06T07:22:38;24.85;;;12.68;;
33190;SDS011;19554;42.652;23.364;2023-04-06T07:25:04;19.50;;;11.65;;
33190;SDS011;19554;42.652;23.364;2023-04-06T07:27:30;17.45;;;11.63;;
33190;SDS011;19554;42.652;23.364;2023-04-06T07:29:56;16.90;;;11.50;;
33190;SDS011;19554;42.652;23.364;2023-04-06T07:32:21;16.67;;;11.52;;
33190;SDS011;19554;42.652;23.364;2023-04-06T07:34:46;22.65;;;12.73;;
33190;SDS011;19554;42.652;23.364;2023-04-06T07:37:12;19.35;;;11.50;;
33190;SDS011;19554;42.652;23.364;2023-04-06T07:39:37;22.33;;;13.63;;
33190;SDS011;19554;42.652;23.364;2023-04-06T07:42:03;18.45;;;11.55;;
33190;SDS011;19554;42.652;23.364;2023-04-06T07:44:28;17.60;;;10.85;;
33190;SDS011;19554;42.652;23.364;2023-04-06T07:46:54;17.02;;;10.60;;
33190;SDS011;19554;42.652;23.364;2023-04-06T07:49:19;19.63;;;11.13;;
33190;SDS011;19554;42.652;23.364;2023-04-06T07:51:45;21.52;;;12.98;;
33190;SDS011;19554;42.652;23.364;2023-04-06T07:54:11;20.98;;;13.23;;
33190;SDS011;19554;42.652;23.364;2023-04-06T07:56:36;20.42;;;12.82;;
33190;SDS011;19554;42.652;23.364;2023-04-06T07:59:02;17.63;;;11.65;;
33190;SDS011;19554;42.652;23.364;2023-04-06T08:01:28;17.73;;;11.10;;
33190;SDS011;19554;42.652;23.364;2023-04-06T08:03:55;20.45;;;13.32;;
33190;SDS011;19554;42.652;23.364;2023-04-06T08:06:21;20.40;;;12.73;;
33190;SDS011;19554;42.652;23.364;2023-04-06T08:08:46;21.70;;;12.60;;
33190;SDS011;19554;42.652;23.364;2023-04-06T08:11:12;20.17;;;12.65;;
33190;SDS011;19554;42.652;23.364;2023-04-06T08:13:37;19.58;;;12.48;;
33190;SDS011;19554;42.652;23.364;2023-04-06T08:16:02;19.70;;;12.63;;
33190;SDS011;19554;42.652;23.364;2023-04-06T08:18:28;19.92;;;12.57;;
33190;SDS011;19554;42.652;23.364;2023-04-06T08:20:55;16.52;;;11.50;;
33190;SDS011;19554;42.652;23.364;2023-04-06T08:23:20;22.48;;;11.90;;
33190;SDS011;19554;42.652;23.364;2023-04-06T08:25:46;17.92;;;11.55;;
33190;SDS011;19554;42.652;23.364;2023-04-06T08:28:11;15.90;;;10.90;;
33190;SDS011;19554;42.652;23.364;2023-04-06T08:30:39;18.40;;;11.60;;
33190;SDS011;19554;42.652;23.364;2023-04-06T08:33:05;17.70;;;11.30;;
33190;SDS011;19554;42.652;23.364;2023-04-06T08:35:31;17.00;;;11.70;;
33190;SDS011;19554;42.652;23.364;2023-04-06T08:37:56;15.10;;;9.93;;
33190;SDS011;19554;42.652;23.364;2023-04-06T08:40:22;15.60;;;10.07;;
33190;SDS011;19554;42.652;23.364;2023-04-06T08:42:54;13.98;;;9.35;;
33190;SDS011;19554;42.652;23.364;2023-04-06T08:45:21;14.68;;;10.25;;
33190;SDS011;19554;42.652;23.364;2023-04-06T08:47:50;14.77;;;9.23;;
33190;SDS011;19554;42.652;23.364;2023-04-06T08:50:17;13.90;;;9.30;;
33190;SDS011;19554;42.652;23.364;2023-04-06T08:52:43;13.02;;;8.27;;
33190;SDS011;19554;42.652;23.364;2023-04-06T08:55:11;18.67;;;9.25;;
33190;SDS011;19554;42.652;23.364;2023-04-06T08:57:37;17.60;;;9.68;;
33190;SDS011;19554;42.652;23.364;2023-04-06T09:00:03;12.25;;;9.40;;
33190;SDS011;19554;42.652;23.364;2023-04-06T09:02:29;11.65;;;8.05;;
33190;SDS011;19554;42.652;23.364;2023-04-06T09:04:55;15.88;;;8.82;;
33190;SDS011;19554;42.652;23.364;2023-04-06T09:07:21;13.60;;;9.55;;
33190;SDS011;19554;42.652;23.364;2023-04-06T09:09:47;11.82;;;9.20;;
33190;SDS011;19554;42.652;23.364;2023-04-06T09:12:28;13.70;;;8.77;;
33190;SDS011;19554;42.652;23.364;2023-04-06T09:14:56;15.90;;;9.00;;
33190;SDS011;19554;42.652;23.364;2023-04-06T09:17:22;19.50;;;9.88;;
33190;SDS011;19554;42.652;23.364;2023-04-06T09:19:52;16.50;;;9.80;;
33190;SDS011;19554;42.652;23.364;2023-04-06T09:22:18;12.95;;;9.90;;
33190;SDS011;19554;42.652;23.364;2023-04-06T09:24:46;14.77;;;11.13;;
33190;SDS011;19554;42.652;23.364;2023-04-06T09:27:13;16.80;;;9.73;;
33190;SDS011;19554;42.652;23.364;2023-04-06T09:29:40;13.82;;;9.48;;
33190;SDS011;19554;42.652;23.364;2023-04-06T09:32:06;15.23;;;9.70;;
33190;SDS011;19554;42.652;23.364;2023-04-06T09:34:33;14.88;;;9.52;;
33190;SDS011;19554;42.652;23.364;2023-04-06T09:36:59;18.10;;;10.23;;
33190;SDS011;19554;42.652;23.364;2023-04-06T09:39:25;14.18;;;9.55;;
33190;SDS011;19554;42.652;23.364;2023-04-06T09:41:51;17.40;;;9.55;;
33190;SDS011;19554;42.652;23.364;2023-04-06T09:44:17;12.57;;;9.35;;
33190;SDS011;19554;42.652;23.364;2023-04-06T09:46:44;15.23;;;9.18;;
33190;SDS011;19554;42.652;23.364;2023-04-06T09:49:10;16.77;;;8.38;;
33190;SDS011;19554;42.652;23.364;2023-04-06T09:51:38;12.95;;;9.25;;
33190;SDS011;19554;42.652;23.364;2023-04-06T09:54:05;13.23;;;8.63;;
33190;SDS011;19554;42.652;23.364;2023-04-06T10:01:52;14.75;;;8.55;;
33190;SDS011;19554;42.652;23.364;2023-04-06T10:07:01;14.20;;;8.98;;
33190;SDS011;19554;42.652;23.364;2023-04-06T10:09:28;12.85;;;8.93;;
33190;SDS011;19554;42.652;23.364;2023-04-06T10:12:02;14.82;;;9.63;;
33190;SDS011;19554;42.652;23.364;2023-04-06T10:14:28;14.95;;;9.55;;
33190;SDS011;19554;42.652;23.364;2023-04-06T10:16:55;13.70;;;9.23;;
33190;SDS011;19554;42.652;23.364;2023-04-06T10:19:23;12.68;;;8.60;;
33190;SDS011;19554;42.652;23.364;2023-04-06T10:21:55;15.18;;;9.50;;
33190;SDS011;19554;42.652;23.364;2023-04-06T10:24:24;13.75;;;8.88;;
33190;SDS011;19554;42.652;23.364;2023-04-06T10:27:02;11.25;;;8.60;;
33190;SDS011;19554;42.652;23.364;2023-04-06T10:29:28;16.30;;;9.73;;
33190;SDS011;19554;42.652;23.364;2023-04-06T10:32:05;13.55;;;8.80;;
33190;SDS011;19554;42.652;23.364;2023-04-06T10:34:36;11.80;;;9.07;;
33190;SDS011;19554;42.652;23.364;2023-04-06T10:37:15;14.93;;;9.95;;
33190;SDS011;19554;42.652;23.364;2023-04-06T10:39:53;12.90;;;8.85;;
33190;SDS011;19554;42.652;23.364;2023-04-06T10:42:23;9.38;;;7.35;;
33190;SDS011;19554;42.652;23.364;2023-04-06T10:44:50;15.75;;;9.32;;
33190;SDS011;19554;42.652;23.364;2023-04-06T10:47:16;11.70;;;8.77;;
33190;SDS011;19554;42.652;23.364;2023-04-06T10:49:45;11.10;;;8.75;;
33190;SDS011;19554;42.652;23.364;2023-04-06T10:52:10;14.18;;;9.52;;
33190;SDS011;19554;42.652;23.364;2023-04-06T10:54:40;17.65;;;9.95;;
33190;SDS011;19554;42.652;23.364;2023-04-06T10:57:07;14.18;;;8.55;;
33190;SDS011;19554;42.652;23.364;2023-04-06T10:59:32;16.48;;;10.10;;
33190;SDS011;19554;42.652;23.364;2023-04-06T11:01:57;12.50;;;8.60;;
33190;SDS011;19554;42.652;23.364;2023-04-06T11:04:23;14.18;;;10.07;;
33190;SDS011;19554;42.652;23.364;2023-04-06T11:06:50;15.43;;;9.95;;
33190;SDS011;19554;42.652;23.364;2023-04-06T11:11:51;12.25;;;9.00;;
33190;SDS011;19554;42.652;23.364;2023-04-06T11:14:17;13.27;;;9.95;;
33190;SDS011;19554;42.652;23.364;2023-04-06T11:16:42;15.68;;;10.80;;
33190;SDS011;19554;42.652;23.364;2023-04-06T11:21:42;13.40;;;9.80;;
33190;SDS011;19554;42.652;23.364;2023-04-06T11:26:41;15.65;;;10.10;;
33190;SDS011;19554;42.652;23.364;2023-04-06T11:29:17;17.83;;;10.63;;
33190;SDS011;19554;42.652;23.364;2023-04-06T11:31:48;13.57;;;10.02;;
33190;SDS011;19554;42.652;23.364;2023-04-06T11:34:19;14.18;;;10.43;;
33190;SDS011;19554;42.652;23.364;2023-04-06T11:36:46;19.88;;;9.77;;
33190;SDS011;19554;42.652;23.364;2023-04-06T11:39:17;15.95;;;10.65;;
33190;SDS011;19554;42.652;23.364;2023-04-06T11:41:51;15.30;;;10.23;;
33190;SDS011;19554;42.652;23.364;2023-04-06T11:44:33;14.63;;;10.32;;
33190;SDS011;19554;42.652;23.364;2023-04-06T11:47:08;15.93;;;10.60;;
33190;SDS011;19554;42.652;23.364;2023-04-06T11:49:38;16.17;;;10.20;;
33190;SDS011;19554;42.652;23.364;2023-04-06T11:52:16;15.20;;;10.02;;
33190;SDS011;19554;42.652;23.364;2023-04-06T11:54:44;16.52;;;10.75;;
33190;SDS011;19554;42.652;23.364;2023-04-06T11:57:10;17.35;;;11.13;;
33190;SDS011;19554;42.652;23.364;2023-04-06T11:59:35;13.55;;;8.40;;
33190;SDS011;19554;42.652;23.364;2023-04-06T12:02:01;13.63;;;8.55;;
33190;SDS011;19554;42.652;23.364;2023-04-06T12:04:27;17.00;;;9.93;;
33190;SDS011;19554;42.652;23.364;2023-04-06T12:06:53;15.13;;;10.35;;
33190;SDS011;19554;42.652;23.364;2023-04-06T12:09:19;20.98;;;10.73;;
33190;SDS011;19554;42.652;23.364;2023-04-06T12:11:45;16.75;;;9.82;;
33190;SDS011;19554;42.652;23.364;2023-04-06T12:14:11;16.02;;;11.10;;
33190;SDS011;19554;42.652;23.364;2023-04-06T12:16:37;20.70;;;9.98;;
33190;SDS011;19554;42.652;23.364;2023-04-06T12:19:02;19.10;;;10.23;;
33190;SDS011;19554;42.652;23.364;2023-04-06T12:21:28;14.85;;;9.68;;
33190;SDS011;19554;42.652;23.364;2023-04-06T12:23:54;14.70;;;9.88;;
33190;SDS011;19554;42.652;23.364;2023-04-06T12:26:20;14.80;;;10.73;;
33190;SDS011;19554;42.652;23.364;2023-04-06T12:28:46;14.85;;;10.25;;
33190;SDS011;19554;42.652;23.364;2023-04-06T12:31:18;14.50;;;10.05;;
33190;SDS011;19554;42.652;23.364;2023-04-06T12:33:50;14.00;;;10.13;;
33190;SDS011;19554;42.652;23.364;2023-04-06T12:36:17;20.65;;;12.13;;
33190;SDS011;19554;42.652;23.364;2023-04-06T12:38:47;17.10;;;10.35;;
33190;SDS011;19554;42.652;23.364;2023-04-06T12:41:13;13.50;;;9.70;;
33190;SDS011;19554;42.652;23.364;2023-04-06T12:43:40;13.65;;;9.68;;
33190;SDS011;19554;42.652;23.364;2023-04-06T12:46:06;12.18;;;9.15;;
33190;SDS011;19554;42.652;23.364;2023-04-06T12:48:31;10.70;;;8.30;;
33190;SDS011;19554;42.652;23.364;2023-04-06T12:50:57;11.43;;;8.93;;
33190;SDS011;19554;42.652;23.364;2023-04-06T12:53:25;16.05;;;9.52;;
33190;SDS011;19554;42.652;23.364;2023-04-06T12:55:53;13.05;;;9.57;;
33190;SDS011;19554;42.652;23.364;2023-04-06T12:58:20;12.73;;;9.38;;
33190;SDS011;19554;42.652;23.364;2023-04-06T13:00:47;17.02;;;9.70;;
33190;SDS011;19554;42.652;23.364;2023-04-06T13:03:13;13.10;;;8.98;;
33190;SDS011;19554;42.652;23.364;2023-04-06T13:05:48;14.57;;;9.32;;
33190;SDS011;19554;42.652;23.364;2023-04-06T13:08:16;15.65;;;10.60;;
33190;SDS011;19554;42.652;23.364;2023-04-06T13:10:49;17.33;;;10.82;;
33190;SDS011;19554;42.652;23.364;2023-04-06T13:13:17;15.23;;;10.75;;
33190;SDS011;19554;42.652;23.364;2023-04-06T13:15:47;17.98;;;11.10;;
33190;SDS011;19554;42.652;23.364;2023-04-06T13:18:13;16.20;;;10.15;;
33190;SDS011;19554;42.652;23.364;2023-04-06T13:20:38;14.55;;;10.55;;
33190;SDS011;19554;42.652;23.364;2023-04-06T13:23:03;14.77;;;9.95;;
33190;SDS011;19554;42.652;23.364;2023-04-06T13:25:29;16.02;;;10.95;;
33190;SDS011;19554;42.652;23.364;2023-04-06T13:27:55;14.45;;;10.70;;
33190;SDS011;19554;42.652;23.364;2023-04-06T13:30:21;15.52;;;10.63;;
33190;SDS011;19554;42.652;23.364;2023-04-06T13:32:47;17.80;;;10.13;;
33190;SDS011;19554;42.652;23.364;2023-04-06T13:35:12;13.73;;;10.10;;
33190;SDS011;19554;42.652;23.364;2023-04-06T13:37:38;18.63;;;10.45;;
33190;SDS011;19554;42.652;23.364;2023-04-06T13:40:04;17.27;;;10.38;;
33190;SDS011;19554;42.652;23.364;2023-04-06T13:42:30;14.90;;;9.20;;
33190;SDS011;19554;42.652;23.364;2023-04-06T13:44:56;13.85;;;9.30;;
33190;SDS011;19554;42.652;23.364;2023-04-06T13:47:22;17.13;;;10.63;;
33190;SDS011;19554;42.652;23.364;2023-04-06T13:49:49;16.77;;;9.82;;
33190;SDS011;19554;42.652;23.364;2023-04-06T13:52:15;13.18;;;10.18;;
33190;SDS011;19554;42.652;23.364;2023-04-06T13:54:41;16.13;;;10.05;;
33190;SDS011;19554;42.652;23.364;2023-04-06T13:57:06;14.00;;;9.75;;
33190;SDS011;19554;42.652;23.364;2023-04-06T13:59:35;13.45;;;8.57;;
33190;SDS011;19554;42.652;23.364;2023-04-06T14:02:05;12.02;;;8.85;;
33190;SDS011;19554;42.652;23.364;2023-04-06T14:04:32;12.90;;;9.30;;
33190;SDS011;19554;42.652;23.364;2023-04-06T14:06:58;14.05;;;8.60;;
33190;SDS011;19554;42.652;23.364;2023-04-06T14:09:24;12.57;;;8.77;;
33190;SDS011;19554;42.652;23.364;2023-04-06T14:11:50;12.23;;;9.15;;
33190;SDS011;19554;42.652;23.364;2023-04-06T14:14:16;13.48;;;9.18;;
33190;SDS011;19554;42.652;23.364;2023-04-06T14:16:42;12.68;;;8.35;;
33190;SDS011;19554;42.652;23.364;2023-04-06T14:19:13;14.82;;;9.23;;
33190;SDS011;19554;42.652;23.364;2023-04-06T14:21:41;13.50;;;9.00;;
33190;SDS011;19554;42.652;23.364;2023-04-06T14:24:06;11.63;;;9.02;;